sensor_id;sensor_type;location;lat;lon;timestamp;P1;durP1;ratioP1;P2;durP2;ratioP2
72273;SDS011;60208;48.692;8.948;2022-08-01T00:02:08;3.03;;;1.95;;
72273;SDS011;60208;48.692;8.948;2022-08-01T00:04:33;2.03;;;1.83;;
72273;SDS011;60208;48.692;8.948;2022-08-01T00:06:59;3.17;;;1.95;;
72273;SDS011;60208;48.692;8.948;2022-08-01T00:09:25;3.60;;;2.00;;
72273;SDS011;60208;48.692;8.948;2022-08-01T00:11:50;2.42;;;2.22;;
72273;SDS011;60208;48.692;8.948;2022-08-01T00:14:15;3.40;;;1.80;;
72273;SDS011;60208;48.692;8.948;2022-08-01T00:16:41;5.70;;;2.35;;
72273;SDS011;60208;48.692;8.948;2022-08-01T00:19:06;2.33;;;1.90;;
72273;SDS011;60208;48.692;8.948;2022-08-01T00:21:31;3.55;;;2.15;;
72273;SDS011;60208;48.692;8.948;2022-08-01T00:23:57;2.15;;;1.92;;
72273;SDS011;60208;48.692;8.948;2022-08-01T00:26:22;2.85;;;2.05;;
72273;SDS011;60208;48.692;8.948;2022-08-01T00:28:48;2.35;;;2.08;;
72273;SDS011;60208;48.692;8.948;2022-08-01T00:31:13;3.92;;;2.20;;
72273;SDS011;60208;48.692;8.948;2022-08-01T00:33:38;2.88;;;2.40;;
72273;SDS011;60208;48.692;8.948;2022-08-01T00:36:04;3.47;;;2.17;;
72273;SDS011;60208;48.692;8.948;2022-08-01T00:38:29;3.30;;;2.03;;
72273;SDS011;60208;48.692;8.948;2022-08-01T00:40:56;2.53;;;2.10;;
72273;SDS011;60208;48.692;8.948;2022-08-01T00:43:21;3.72;;;2.30;;
72273;SDS011;60208;48.692;8.948;2022-08-01T00:45:47;3.53;;;2.30;;
72273;SDS011;60208;48.692;8.948;2022-08-01T00:48:12;2.67;;;2.40;;
72273;SDS011;60208;48.692;8.948;2022-08-01T00:50:37;2.58;;;2.38;;
72273;SDS011;60208;48.692;8.948;2022-08-01T00:53:03;3.53;;;2.20;;
72273;SDS011;60208;48.692;8.948;2022-08-01T00:55:28;2.30;;;2.08;;
72273;SDS011;60208;48.692;8.948;2022-08-01T00:57:54;3.78;;;2.30;;
72273;SDS011;60208;48.692;8.948;2022-08-01T01:00:20;3.00;;;2.35;;
72273;SDS011;60208;48.692;8.948;2022-08-01T01:02:46;3.28;;;2.30;;
72273;SDS011;60208;48.692;8.948;2022-08-01T01:05:12;2.60;;;2.20;;
72273;SDS011;60208;48.692;8.948;2022-08-01T01:07:46;2.47;;;2.05;;
72273;SDS011;60208;48.692;8.948;2022-08-01T01:15:43;3.30;;;2.17;;
72273;SDS011;60208;48.692;8.948;2022-08-01T01:18:29;2.65;;;2.30;;
72273;SDS011;60208;48.692;8.948;2022-08-01T01:21:07;3.13;;;2.35;;
72273;SDS011;60208;48.692;8.948;2022-08-01T01:23:46;2.60;;;2.40;;
72273;SDS011;60208;48.692;8.948;2022-08-01T01:26:59;2.20;;;2.05;;
72273;SDS011;60208;48.692;8.948;2022-08-01T01:29:28;4.75;;;2.22;;
72273;SDS011;60208;48.692;8.948;2022-08-01T01:34:28;2.40;;;2.20;;
72273;SDS011;60208;48.692;8.948;2022-08-01T01:36:55;3.75;;;2.60;;
72273;SDS011;60208;48.692;8.948;2022-08-01T01:39:21;2.85;;;2.50;;
72273;SDS011;60208;48.692;8.948;2022-08-01T01:41:49;3.03;;;2.60;;
72273;SDS011;60208;48.692;8.948;2022-08-01T01:44:16;3.47;;;2.40;;
72273;SDS011;60208;48.692;8.948;2022-08-01T01:46:42;3.53;;;2.50;;
72273;SDS011;60208;48.692;8.948;2022-08-01T01:49:08;3.65;;;2.38;;
72273;SDS011;60208;48.692;8.948;2022-08-01T01:51:35;4.20;;;2.45;;
72273;SDS011;60208;48.692;8.948;2022-08-01T01:54:01;2.65;;;2.45;;
72273;SDS011;60208;48.692;8.948;2022-08-01T01:56:27;2.83;;;2.53;;
72273;SDS011;60208;48.692;8.948;2022-08-01T01:58:54;2.63;;;2.40;;
72273;SDS011;60208;48.692;8.948;2022-08-01T02:01:23;3.78;;;2.50;;
72273;SDS011;60208;48.692;8.948;2022-08-01T02:03:51;3.10;;;2.78;;
72273;SDS011;60208;48.692;8.948;2022-08-01T02:06:18;3.15;;;2.78;;
72273;SDS011;60208;48.692;8.948;2022-08-01T02:08:44;3.45;;;2.67;;
72273;SDS011;60208;48.692;8.948;2022-08-01T02:11:10;2.83;;;2.50;;
72273;SDS011;60208;48.692;8.948;2022-08-01T02:13:46;2.60;;;2.40;;
72273;SDS011;60208;48.692;8.948;2022-08-01T02:16:20;3.90;;;2.70;;
72273;SDS011;60208;48.692;8.948;2022-08-01T02:18:48;3.25;;;2.53;;
72273;SDS011;60208;48.692;8.948;2022-08-01T02:21:13;5.00;;;2.40;;
72273;SDS011;60208;48.692;8.948;2022-08-01T02:23:42;2.72;;;2.53;;
72273;SDS011;60208;48.692;8.948;2022-08-01T02:26:08;3.65;;;2.42;;
72273;SDS011;60208;48.692;8.948;2022-08-01T02:28:37;2.50;;;2.30;;
72273;SDS011;60208;48.692;8.948;2022-08-01T02:31:08;3.40;;;2.40;;
72273;SDS011;60208;48.692;8.948;2022-08-01T02:33:38;2.65;;;2.45;;
72273;SDS011;60208;48.692;8.948;2022-08-01T02:36:06;3.67;;;2.42;;
72273;SDS011;60208;48.692;8.948;2022-08-01T02:38:34;3.78;;;2.70;;
72273;SDS011;60208;48.692;8.948;2022-08-01T02:41:04;3.88;;;2.60;;
72273;SDS011;60208;48.692;8.948;2022-08-01T02:43:34;3.22;;;2.50;;
72273;SDS011;60208;48.692;8.948;2022-08-01T02:46:02;3.55;;;2.60;;
72273;SDS011;60208;48.692;8.948;2022-08-01T02:48:30;4.35;;;2.83;;
72273;SDS011;60208;48.692;8.948;2022-08-01T02:50:58;3.45;;;2.90;;
72273;SDS011;60208;48.692;8.948;2022-08-01T02:53:25;4.00;;;2.90;;
72273;SDS011;60208;48.692;8.948;2022-08-01T02:55:53;3.15;;;2.85;;
72273;SDS011;60208;48.692;8.948;2022-08-01T02:58:19;3.33;;;3.03;;
72273;SDS011;60208;48.692;8.948;2022-08-01T03:00:45;3.75;;;2.90;;
72273;SDS011;60208;48.692;8.948;2022-08-01T03:03:11;3.47;;;3.17;;
72273;SDS011;60208;48.692;8.948;2022-08-01T03:05:37;4.30;;;2.78;;
72273;SDS011;60208;48.692;8.948;2022-08-01T03:08:05;4.05;;;3.15;;
72273;SDS011;60208;48.692;8.948;2022-08-01T03:10:31;4.50;;;3.03;;
72273;SDS011;60208;48.692;8.948;2022-08-01T03:12:58;4.03;;;2.78;;
72273;SDS011;60208;48.692;8.948;2022-08-01T03:15:25;3.13;;;2.65;;
72273;SDS011;60208;48.692;8.948;2022-08-01T03:17:52;4.65;;;2.90;;
72273;SDS011;60208;48.692;8.948;2022-08-01T03:20:18;4.32;;;3.20;;
72273;SDS011;60208;48.692;8.948;2022-08-01T03:22:44;3.83;;;2.75;;
72273;SDS011;60208;48.692;8.948;2022-08-01T03:25:10;4.72;;;2.90;;
72273;SDS011;60208;48.692;8.948;2022-08-01T03:27:37;3.97;;;3.00;;
72273;SDS011;60208;48.692;8.948;2022-08-01T03:30:05;3.40;;;2.88;;
72273;SDS011;60208;48.692;8.948;2022-08-01T03:32:31;3.28;;;2.97;;
72273;SDS011;60208;48.692;8.948;2022-08-01T03:34:57;3.20;;;2.90;;
72273;SDS011;60208;48.692;8.948;2022-08-01T03:37:41;3.20;;;2.90;;
72273;SDS011;60208;48.692;8.948;2022-08-01T03:42:39;3.67;;;2.95;;
72273;SDS011;60208;48.692;8.948;2022-08-01T03:45:10;3.70;;;2.90;;
72273;SDS011;60208;48.692;8.948;2022-08-01T03:47:41;4.95;;;3.30;;
72273;SDS011;60208;48.692;8.948;2022-08-01T03:50:08;3.35;;;2.97;;
72273;SDS011;60208;48.692;8.948;2022-08-01T03:52:35;3.40;;;3.10;;
72273;SDS011;60208;48.692;8.948;2022-08-01T03:55:04;5.65;;;3.28;;
72273;SDS011;60208;48.692;8.948;2022-08-01T03:57:32;3.90;;;3.17;;
72273;SDS011;60208;48.692;8.948;2022-08-01T03:59:58;4.28;;;3.00;;
72273;SDS011;60208;48.692;8.948;2022-08-01T04:02:23;4.00;;;3.15;;
72273;SDS011;60208;48.692;8.948;2022-08-01T04:04:50;3.78;;;3.28;;
72273;SDS011;60208;48.692;8.948;2022-08-01T04:07:25;4.03;;;3.47;;
72273;SDS011;60208;48.692;8.948;2022-08-01T04:09:55;4.00;;;3.47;;
72273;SDS011;60208;48.692;8.948;2022-08-01T04:12:20;3.78;;;3.03;;
72273;SDS011;60208;48.692;8.948;2022-08-01T04:14:46;5.38;;;3.28;;
72273;SDS011;60208;48.692;8.948;2022-08-01T04:17:11;3.88;;;3.05;;
72273;SDS011;60208;48.692;8.948;2022-08-01T04:19:37;3.45;;;3.13;;
72273;SDS011;60208;48.692;8.948;2022-08-01T04:22:03;3.60;;;3.30;;
72273;SDS011;60208;48.692;8.948;2022-08-01T04:24:29;4.90;;;3.42;;
72273;SDS011;60208;48.692;8.948;2022-08-01T04:26:57;4.03;;;3.50;;
72273;SDS011;60208;48.692;8.948;2022-08-01T04:29:23;4.78;;;3.50;;
72273;SDS011;60208;48.692;8.948;2022-08-01T04:31:49;3.60;;;3.30;;
72273;SDS011;60208;48.692;8.948;2022-08-01T04:34:16;5.60;;;3.60;;
72273;SDS011;60208;48.692;8.948;2022-08-01T04:36:42;4.47;;;3.03;;
72273;SDS011;60208;48.692;8.948;2022-08-01T04:39:09;4.90;;;3.40;;
72273;SDS011;60208;48.692;8.948;2022-08-01T04:41:35;3.60;;;3.25;;
72273;SDS011;60208;48.692;8.948;2022-08-01T04:44:01;4.40;;;3.33;;
72273;SDS011;60208;48.692;8.948;2022-08-01T04:46:28;3.70;;;3.30;;
72273;SDS011;60208;48.692;8.948;2022-08-01T04:48:53;3.85;;;3.40;;
72273;SDS011;60208;48.692;8.948;2022-08-01T04:51:19;3.35;;;3.05;;
72273;SDS011;60208;48.692;8.948;2022-08-01T04:53:47;3.70;;;3.20;;
72273;SDS011;60208;48.692;8.948;2022-08-01T04:56:12;5.70;;;3.20;;
72273;SDS011;60208;48.692;8.948;2022-08-01T04:58:39;4.25;;;3.35;;
72273;SDS011;60208;48.692;8.948;2022-08-01T05:01:07;6.55;;;3.40;;
72273;SDS011;60208;48.692;8.948;2022-08-01T05:03:33;4.35;;;3.45;;
72273;SDS011;60208;48.692;8.948;2022-08-01T05:05:59;4.72;;;3.50;;
72273;SDS011;60208;48.692;8.948;2022-08-01T05:08:24;4.00;;;3.60;;
72273;SDS011;60208;48.692;8.948;2022-08-01T05:10:49;3.45;;;3.15;;
72273;SDS011;60208;48.692;8.948;2022-08-01T05:13:15;4.00;;;3.40;;
72273;SDS011;60208;48.692;8.948;2022-08-01T05:15:40;4.05;;;3.10;;
72273;SDS011;60208;48.692;8.948;2022-08-01T05:18:06;3.25;;;2.95;;
72273;SDS011;60208;48.692;8.948;2022-08-01T05:20:31;4.40;;;3.90;;
72273;SDS011;60208;48.692;8.948;2022-08-01T05:22:57;3.53;;;3.10;;
72273;SDS011;60208;48.692;8.948;2022-08-01T05:25:22;4.57;;;3.63;;
72273;SDS011;60208;48.692;8.948;2022-08-01T05:27:48;5.32;;;3.58;;
72273;SDS011;60208;48.692;8.948;2022-08-01T05:30:14;4.97;;;3.20;;
72273;SDS011;60208;48.692;8.948;2022-08-01T05:32:39;11.35;;;3.55;;
72273;SDS011;60208;48.692;8.948;2022-08-01T05:35:06;7.53;;;3.47;;
72273;SDS011;60208;48.692;8.948;2022-08-01T05:37:32;10.35;;;3.45;;
72273;SDS011;60208;48.692;8.948;2022-08-01T05:39:57;8.65;;;3.55;;
72273;SDS011;60208;48.692;8.948;2022-08-01T05:42:22;6.35;;;3.38;;
72273;SDS011;60208;48.692;8.948;2022-08-01T05:44:48;10.27;;;3.40;;
72273;SDS011;60208;48.692;8.948;2022-08-01T05:47:14;14.23;;;3.63;;
72273;SDS011;60208;48.692;8.948;2022-08-01T05:49:40;8.93;;;3.38;;
72273;SDS011;60208;48.692;8.948;2022-08-01T05:52:05;25.85;;;5.25;;
72273;SDS011;60208;48.692;8.948;2022-08-01T05:54:31;20.00;;;4.20;;
72273;SDS011;60208;48.692;8.948;2022-08-01T05:56:56;23.75;;;4.57;;
72273;SDS011;60208;48.692;8.948;2022-08-01T05:59:24;23.00;;;3.80;;
72273;SDS011;60208;48.692;8.948;2022-08-01T06:01:50;23.85;;;3.58;;
72273;SDS011;60208;48.692;8.948;2022-08-01T06:04:15;20.20;;;3.88;;
72273;SDS011;60208;48.692;8.948;2022-08-01T06:06:41;31.02;;;4.70;;
72273;SDS011;60208;48.692;8.948;2022-08-01T06:09:06;26.30;;;4.15;;
72273;SDS011;60208;48.692;8.948;2022-08-01T06:11:31;14.85;;;3.50;;
72273;SDS011;60208;48.692;8.948;2022-08-01T06:13:57;13.75;;;4.00;;
72273;SDS011;60208;48.692;8.948;2022-08-01T06:16:22;19.98;;;3.60;;
72273;SDS011;60208;48.692;8.948;2022-08-01T06:18:48;17.98;;;3.42;;
72273;SDS011;60208;48.692;8.948;2022-08-01T06:21:13;20.95;;;3.38;;
72273;SDS011;60208;48.692;8.948;2022-08-01T06:23:39;19.77;;;3.58;;
72273;SDS011;60208;48.692;8.948;2022-08-01T06:26:06;11.85;;;3.28;;
72273;SDS011;60208;48.692;8.948;2022-08-01T06:28:31;6.65;;;3.13;;
72273;SDS011;60208;48.692;8.948;2022-08-01T06:30:57;11.95;;;2.85;;
72273;SDS011;60208;48.692;8.948;2022-08-01T06:33:24;12.48;;;3.25;;
72273;SDS011;60208;48.692;8.948;2022-08-01T06:35:49;8.52;;;2.90;;
72273;SDS011;60208;48.692;8.948;2022-08-01T06:38:15;12.05;;;2.72;;
72273;SDS011;60208;48.692;8.948;2022-08-01T06:40:40;9.88;;;2.63;;
72273;SDS011;60208;48.692;8.948;2022-08-01T06:43:05;13.10;;;2.28;;
72273;SDS011;60208;48.692;8.948;2022-08-01T06:45:31;6.05;;;2.33;;
72273;SDS011;60208;48.692;8.948;2022-08-01T06:47:56;4.65;;;2.58;;
72273;SDS011;60208;48.692;8.948;2022-08-01T06:50:22;5.03;;;2.20;;
72273;SDS011;60208;48.692;8.948;2022-08-01T06:52:47;6.47;;;2.40;;
72273;SDS011;60208;48.692;8.948;2022-08-01T06:55:12;7.57;;;2.00;;
72273;SDS011;60208;48.692;8.948;2022-08-01T06:57:45;4.57;;;1.60;;
72273;SDS011;60208;48.692;8.948;2022-08-01T07:00:14;6.13;;;1.70;;
72273;SDS011;60208;48.692;8.948;2022-08-01T07:02:41;5.72;;;1.60;;
72273;SDS011;60208;48.692;8.948;2022-08-01T07:05:07;2.83;;;1.55;;
72273;SDS011;60208;48.692;8.948;2022-08-01T07:07:32;5.70;;;1.73;;
72273;SDS011;60208;48.692;8.948;2022-08-01T07:09:58;4.22;;;1.30;;
72273;SDS011;60208;48.692;8.948;2022-08-01T07:12:23;3.10;;;1.63;;
72273;SDS011;60208;48.692;8.948;2022-08-01T07:14:48;2.95;;;1.40;;
72273;SDS011;60208;48.692;8.948;2022-08-01T07:17:14;1.77;;;1.35;;
72273;SDS011;60208;48.692;8.948;2022-08-01T07:19:39;3.05;;;1.52;;
72273;SDS011;60208;48.692;8.948;2022-08-01T07:22:04;1.77;;;1.35;;
72273;SDS011;60208;48.692;8.948;2022-08-01T07:24:30;1.58;;;1.48;;
72273;SDS011;60208;48.692;8.948;2022-08-01T07:26:56;2.35;;;1.50;;
72273;SDS011;60208;48.692;8.948;2022-08-01T07:29:25;1.88;;;1.70;;
72273;SDS011;60208;48.692;8.948;2022-08-01T07:31:52;2.28;;;1.67;;
72273;SDS011;60208;48.692;8.948;2022-08-01T07:34:19;1.90;;;1.75;;
72273;SDS011;60208;48.692;8.948;2022-08-01T07:36:45;1.55;;;1.45;;
72273;SDS011;60208;48.692;8.948;2022-08-01T07:39:10;3.05;;;1.95;;
72273;SDS011;60208;48.692;8.948;2022-08-01T07:41:35;1.98;;;1.40;;
72273;SDS011;60208;48.692;8.948;2022-08-01T07:44:01;3.00;;;1.80;;
72273;SDS011;60208;48.692;8.948;2022-08-01T07:46:26;1.60;;;1.50;;
72273;SDS011;60208;48.692;8.948;2022-08-01T07:48:52;3.38;;;1.58;;
72273;SDS011;60208;48.692;8.948;2022-08-01T07:51:17;1.73;;;1.63;;
72273;SDS011;60208;48.692;8.948;2022-08-01T07:53:42;2.33;;;1.70;;
72273;SDS011;60208;48.692;8.948;2022-08-01T07:56:08;2.13;;;1.85;;
72273;SDS011;60208;48.692;8.948;2022-08-01T07:58:33;3.05;;;1.90;;
72273;SDS011;60208;48.692;8.948;2022-08-01T08:00:59;2.22;;;1.90;;
72273;SDS011;60208;48.692;8.948;2022-08-01T08:03:24;2.97;;;1.90;;
72273;SDS011;60208;48.692;8.948;2022-08-01T08:05:50;3.40;;;1.90;;
72273;SDS011;60208;48.692;8.948;2022-08-01T08:08:15;3.67;;;1.92;;
72273;SDS011;60208;48.692;8.948;2022-08-01T08:10:42;2.15;;;1.88;;
72273;SDS011;60208;48.692;8.948;2022-08-01T08:13:07;2.10;;;2.00;;
72273;SDS011;60208;48.692;8.948;2022-08-01T08:15:33;2.30;;;2.10;;
72273;SDS011;60208;48.692;8.948;2022-08-01T08:17:58;2.83;;;2.50;;
72273;SDS011;60208;48.692;8.948;2022-08-01T08:20:23;2.38;;;2.10;;
72273;SDS011;60208;48.692;8.948;2022-08-01T08:22:54;2.42;;;2.20;;
72273;SDS011;60208;48.692;8.948;2022-08-01T08:25:21;2.90;;;2.58;;
72273;SDS011;60208;48.692;8.948;2022-08-01T08:27:49;2.78;;;2.22;;
72273;SDS011;60208;48.692;8.948;2022-08-01T08:30:14;2.78;;;2.50;;
72273;SDS011;60208;48.692;8.948;2022-08-01T08:32:40;3.00;;;2.63;;
72273;SDS011;60208;48.692;8.948;2022-08-01T08:35:06;2.60;;;2.40;;
72273;SDS011;60208;48.692;8.948;2022-08-01T08:37:32;2.33;;;1.90;;
72273;SDS011;60208;48.692;8.948;2022-08-01T08:40:02;2.60;;;2.30;;
72273;SDS011;60208;48.692;8.948;2022-08-01T08:42:28;3.45;;;2.15;;
72273;SDS011;60208;48.692;8.948;2022-08-01T08:44:54;2.80;;;2.60;;
72273;SDS011;60208;48.692;8.948;2022-08-01T08:47:20;2.80;;;2.00;;
72273;SDS011;60208;48.692;8.948;2022-08-01T08:49:47;2.85;;;2.42;;
72273;SDS011;60208;48.692;8.948;2022-08-01T08:52:13;2.42;;;2.20;;
72273;SDS011;60208;48.692;8.948;2022-08-01T08:54:40;2.50;;;2.30;;
72273;SDS011;60208;48.692;8.948;2022-08-01T08:57:06;2.53;;;2.08;;
72273;SDS011;60208;48.692;8.948;2022-08-01T08:59:32;2.00;;;1.80;;
72273;SDS011;60208;48.692;8.948;2022-08-01T09:01:57;2.67;;;2.10;;
72273;SDS011;60208;48.692;8.948;2022-08-01T09:04:23;2.15;;;1.95;;
72273;SDS011;60208;48.692;8.948;2022-08-01T09:06:49;2.38;;;2.17;;
72273;SDS011;60208;48.692;8.948;2022-08-01T09:09:15;3.75;;;2.10;;
72273;SDS011;60208;48.692;8.948;2022-08-01T09:11:40;2.38;;;1.73;;
72273;SDS011;60208;48.692;8.948;2022-08-01T09:14:13;2.38;;;2.17;;
72273;SDS011;60208;48.692;8.948;2022-08-01T09:16:42;2.30;;;2.10;;
72273;SDS011;60208;48.692;8.948;2022-08-01T09:19:11;2.00;;;1.77;;
72273;SDS011;60208;48.692;8.948;2022-08-01T09:21:37;1.70;;;1.60;;
72273;SDS011;60208;48.692;8.948;2022-08-01T09:24:03;2.92;;;1.80;;
72273;SDS011;60208;48.692;8.948;2022-08-01T09:26:31;2.47;;;1.63;;
72273;SDS011;60208;48.692;8.948;2022-08-01T09:28:58;1.67;;;1.58;;
72273;SDS011;60208;48.692;8.948;2022-08-01T09:31:24;1.80;;;1.63;;
72273;SDS011;60208;48.692;8.948;2022-08-01T09:33:58;4.55;;;2.30;;
72273;SDS011;60208;48.692;8.948;2022-08-01T09:36:42;6.70;;;2.60;;
72273;SDS011;60208;48.692;8.948;2022-08-01T09:39:21;6.88;;;2.80;;
72273;SDS011;60208;48.692;8.948;2022-08-01T09:41:48;5.80;;;2.88;;
72273;SDS011;60208;48.692;8.948;2022-08-01T09:44:14;3.20;;;2.70;;
72273;SDS011;60208;48.692;8.948;2022-08-01T09:46:52;3.28;;;2.63;;
72273;SDS011;60208;48.692;8.948;2022-08-01T09:49:29;2.70;;;2.50;;
72273;SDS011;60208;48.692;8.948;2022-08-01T09:52:00;2.67;;;2.38;;
72273;SDS011;60208;48.692;8.948;2022-08-01T09:54:35;2.55;;;2.35;;
72273;SDS011;60208;48.692;8.948;2022-08-01T09:57:17;4.72;;;2.83;;
72273;SDS011;60208;48.692;8.948;2022-08-01T09:59:45;4.05;;;2.53;;
72273;SDS011;60208;48.692;8.948;2022-08-01T10:02:12;4.30;;;2.67;;
72273;SDS011;60208;48.692;8.948;2022-08-01T10:04:49;3.80;;;2.40;;
72273;SDS011;60208;48.692;8.948;2022-08-01T10:07:15;2.50;;;2.20;;
72273;SDS011;60208;48.692;8.948;2022-08-01T10:09:41;9.75;;;2.80;;
72273;SDS011;60208;48.692;8.948;2022-08-01T10:12:08;5.03;;;2.55;;
72273;SDS011;60208;48.692;8.948;2022-08-01T10:14:34;2.20;;;2.00;;
72273;SDS011;60208;48.692;8.948;2022-08-01T10:17:00;4.85;;;2.35;;
72273;SDS011;60208;48.692;8.948;2022-08-01T10:19:26;2.58;;;2.30;;
72273;SDS011;60208;48.692;8.948;2022-08-01T10:21:54;3.67;;;2.10;;
72273;SDS011;60208;48.692;8.948;2022-08-01T10:24:20;2.20;;;2.00;;
72273;SDS011;60208;48.692;8.948;2022-08-01T10:26:56;3.13;;;2.35;;
72273;SDS011;60208;48.692;8.948;2022-08-01T10:29:27;4.78;;;2.05;;
72273;SDS011;60208;48.692;8.948;2022-08-01T10:31:52;2.38;;;2.03;;
72273;SDS011;60208;48.692;8.948;2022-08-01T10:34:18;8.07;;;2.50;;
72273;SDS011;60208;48.692;8.948;2022-08-01T10:36:45;6.15;;;1.70;;
72273;SDS011;60208;48.692;8.948;2022-08-01T10:39:11;1.73;;;1.63;;
72273;SDS011;60208;48.692;8.948;2022-08-01T10:41:38;2.28;;;1.80;;
72273;SDS011;60208;48.692;8.948;2022-08-01T10:44:05;2.33;;;1.42;;
72273;SDS011;60208;48.692;8.948;2022-08-01T10:46:31;1.80;;;1.70;;
72273;SDS011;60208;48.692;8.948;2022-08-01T10:49:13;1.90;;;1.63;;
72273;SDS011;60208;48.692;8.948;2022-08-01T10:51:40;1.60;;;1.50;;
72273;SDS011;60208;48.692;8.948;2022-08-01T10:54:06;3.58;;;1.88;;
72273;SDS011;60208;48.692;8.948;2022-08-01T10:56:46;2.83;;;1.67;;
72273;SDS011;60208;48.692;8.948;2022-08-01T10:59:14;1.80;;;1.70;;
72273;SDS011;60208;48.692;8.948;2022-08-01T11:01:45;1.85;;;1.75;;
72273;SDS011;60208;48.692;8.948;2022-08-01T11:04:24;3.28;;;1.88;;
72273;SDS011;60208;48.692;8.948;2022-08-01T11:07:03;2.65;;;2.10;;
72273;SDS011;60208;48.692;8.948;2022-08-01T11:09:30;4.50;;;3.47;;
72273;SDS011;60208;48.692;8.948;2022-08-01T11:14:34;13.82;;;2.90;;
72273;SDS011;60208;48.692;8.948;2022-08-01T11:20:13;8.60;;;1.90;;
72273;SDS011;60208;48.692;8.948;2022-08-01T11:25:24;5.88;;;2.47;;
72273;SDS011;60208;48.692;8.948;2022-08-01T11:30:52;2.15;;;1.60;;
72273;SDS011;60208;48.692;8.948;2022-08-01T11:34:05;2.00;;;1.75;;
72273;SDS011;60208;48.692;8.948;2022-08-01T11:38:37;5.05;;;1.75;;
72273;SDS011;60208;48.692;8.948;2022-08-01T11:54:36;2.50;;;2.00;;
72273;SDS011;60208;48.692;8.948;2022-08-01T11:57:13;3.20;;;1.63;;
72273;SDS011;60208;48.692;8.948;2022-08-01T11:59:55;3.05;;;1.80;;
72273;SDS011;60208;48.692;8.948;2022-08-01T12:02:23;1.90;;;1.80;;
72273;SDS011;60208;48.692;8.948;2022-08-01T12:04:54;2.10;;;1.80;;
72273;SDS011;60208;48.692;8.948;2022-08-01T12:09:48;1.83;;;1.60;;
72273;SDS011;60208;48.692;8.948;2022-08-01T12:12:17;3.42;;;1.85;;
72273;SDS011;60208;48.692;8.948;2022-08-01T12:14:43;2.50;;;1.40;;
72273;SDS011;60208;48.692;8.948;2022-08-01T12:17:09;2.97;;;1.33;;
72273;SDS011;60208;48.692;8.948;2022-08-01T12:19:35;3.20;;;1.13;;
72273;SDS011;60208;48.692;8.948;2022-08-01T12:22:06;5.78;;;1.40;;
72273;SDS011;60208;48.692;8.948;2022-08-01T12:24:37;2.42;;;1.40;;
72273;SDS011;60208;48.692;8.948;2022-08-01T12:27:04;6.53;;;1.73;;
72273;SDS011;60208;48.692;8.948;2022-08-01T12:29:34;6.75;;;1.67;;
72273;SDS011;60208;48.692;8.948;2022-08-01T12:32:04;7.45;;;1.63;;
72273;SDS011;60208;48.692;8.948;2022-08-01T12:34:45;4.68;;;1.50;;
72273;SDS011;60208;48.692;8.948;2022-08-01T12:37:10;4.30;;;1.30;;
72273;SDS011;60208;48.692;8.948;2022-08-01T12:39:36;3.08;;;1.48;;
72273;SDS011;60208;48.692;8.948;2022-08-01T12:42:01;9.30;;;1.52;;
72273;SDS011;60208;48.692;8.948;2022-08-01T12:44:31;1.70;;;1.20;;
72273;SDS011;60208;48.692;8.948;2022-08-01T12:46:57;1.70;;;0.98;;
72273;SDS011;60208;48.692;8.948;2022-08-01T12:49:22;2.95;;;1.38;;
72273;SDS011;60208;48.692;8.948;2022-08-01T12:51:49;2.97;;;1.40;;
72273;SDS011;60208;48.692;8.948;2022-08-01T12:54:14;10.88;;;1.55;;
72273;SDS011;60208;48.692;8.948;2022-08-01T12:56:39;1.23;;;1.10;;
72273;SDS011;60208;48.692;8.948;2022-08-01T12:59:24;1.20;;;1.10;;
72273;SDS011;60208;48.692;8.948;2022-08-01T13:01:52;1.90;;;1.20;;
72273;SDS011;60208;48.692;8.948;2022-08-01T13:04:18;1.98;;;1.20;;
72273;SDS011;60208;48.692;8.948;2022-08-01T13:06:43;3.42;;;1.35;;
72273;SDS011;60208;48.692;8.948;2022-08-01T13:09:09;11.35;;;2.13;;
72273;SDS011;60208;48.692;8.948;2022-08-01T13:11:39;9.23;;;1.85;;
72273;SDS011;60208;48.692;8.948;2022-08-01T13:14:06;2.72;;;1.70;;
72273;SDS011;60208;48.692;8.948;2022-08-01T13:16:32;1.73;;;1.33;;
72273;SDS011;60208;48.692;8.948;2022-08-01T13:18:57;3.10;;;1.60;;
72273;SDS011;60208;48.692;8.948;2022-08-01T13:21:24;4.95;;;1.60;;
72273;SDS011;60208;48.692;8.948;2022-08-01T13:26:48;5.57;;;1.50;;
72273;SDS011;60208;48.692;8.948;2022-08-01T13:29:21;2.65;;;1.58;;
72273;SDS011;60208;48.692;8.948;2022-08-01T13:31:54;3.67;;;1.67;;
72273;SDS011;60208;48.692;8.948;2022-08-01T13:34:29;10.57;;;1.90;;
72273;SDS011;60208;48.692;8.948;2022-08-01T13:36:55;5.88;;;1.80;;
72273;SDS011;60208;48.692;8.948;2022-08-01T13:39:20;3.97;;;1.73;;
72273;SDS011;60208;48.692;8.948;2022-08-01T13:42:04;2.75;;;1.80;;
72273;SDS011;60208;48.692;8.948;2022-08-01T13:44:30;10.27;;;1.83;;
72273;SDS011;60208;48.692;8.948;2022-08-01T13:46:55;10.10;;;1.85;;
72273;SDS011;60208;48.692;8.948;2022-08-01T13:49:21;5.00;;;1.80;;
72273;SDS011;60208;48.692;8.948;2022-08-01T13:51:47;8.70;;;2.15;;
72273;SDS011;60208;48.692;8.948;2022-08-01T13:54:15;11.60;;;2.30;;
72273;SDS011;60208;48.692;8.948;2022-08-01T13:56:40;6.78;;;2.00;;
72273;SDS011;60208;48.692;8.948;2022-08-01T13:59:05;6.28;;;1.92;;
72273;SDS011;60208;48.692;8.948;2022-08-01T14:01:31;5.25;;;1.90;;
72273;SDS011;60208;48.692;8.948;2022-08-01T14:03:56;6.10;;;2.10;;
72273;SDS011;60208;48.692;8.948;2022-08-01T14:06:22;9.20;;;2.22;;
72273;SDS011;60208;48.692;8.948;2022-08-01T14:08:48;9.77;;;2.10;;
72273;SDS011;60208;48.692;8.948;2022-08-01T14:11:14;6.05;;;2.08;;
72273;SDS011;60208;48.692;8.948;2022-08-01T14:13:39;8.55;;;1.95;;
72273;SDS011;60208;48.692;8.948;2022-08-01T14:16:05;7.00;;;1.77;;
72273;SDS011;60208;48.692;8.948;2022-08-01T14:18:31;4.40;;;1.50;;
72273;SDS011;60208;48.692;8.948;2022-08-01T14:20:57;4.05;;;1.55;;
72273;SDS011;60208;48.692;8.948;2022-08-01T14:23:22;6.57;;;1.50;;
72273;SDS011;60208;48.692;8.948;2022-08-01T14:25:47;3.85;;;1.38;;
72273;SDS011;60208;48.692;8.948;2022-08-01T14:28:13;1.40;;;1.30;;
72273;SDS011;60208;48.692;8.948;2022-08-01T14:30:38;4.57;;;1.50;;
72273;SDS011;60208;48.692;8.948;2022-08-01T14:33:06;3.15;;;1.63;;
72273;SDS011;60208;48.692;8.948;2022-08-01T14:35:31;8.80;;;1.57;;
72273;SDS011;60208;48.692;8.948;2022-08-01T14:37:56;3.27;;;1.40;;
72273;SDS011;60208;48.692;8.948;2022-08-01T14:40:22;5.75;;;1.52;;
72273;SDS011;60208;48.692;8.948;2022-08-01T14:42:47;8.30;;;1.90;;
72273;SDS011;60208;48.692;8.948;2022-08-01T14:45:13;9.07;;;1.90;;
72273;SDS011;60208;48.692;8.948;2022-08-01T14:47:39;5.72;;;1.95;;
72273;SDS011;60208;48.692;8.948;2022-08-01T14:50:07;6.63;;;1.63;;
72273;SDS011;60208;48.692;8.948;2022-08-01T14:52:34;9.43;;;1.85;;
72273;SDS011;60208;48.692;8.948;2022-08-01T14:55:00;6.93;;;2.00;;
72273;SDS011;60208;48.692;8.948;2022-08-01T14:57:26;5.55;;;2.15;;
72273;SDS011;60208;48.692;8.948;2022-08-01T14:59:52;5.13;;;1.65;;
72273;SDS011;60208;48.692;8.948;2022-08-01T15:02:17;5.28;;;1.70;;
72273;SDS011;60208;48.692;8.948;2022-08-01T15:04:43;5.85;;;2.42;;
72273;SDS011;60208;48.692;8.948;2022-08-01T15:07:10;3.10;;;1.30;;
72273;SDS011;60208;48.692;8.948;2022-08-01T15:09:35;3.42;;;1.40;;
72273;SDS011;60208;48.692;8.948;2022-08-01T15:12:01;2.50;;;1.70;;
72273;SDS011;60208;48.692;8.948;2022-08-01T15:14:26;2.47;;;1.55;;
72273;SDS011;60208;48.692;8.948;2022-08-01T15:17:10;4.88;;;1.50;;
72273;SDS011;60208;48.692;8.948;2022-08-01T15:19:35;1.83;;;1.40;;
72273;SDS011;60208;48.692;8.948;2022-08-01T15:22:01;2.78;;;1.60;;
72273;SDS011;60208;48.692;8.948;2022-08-01T15:24:26;5.50;;;1.40;;
72273;SDS011;60208;48.692;8.948;2022-08-01T15:26:51;2.33;;;1.50;;
72273;SDS011;60208;48.692;8.948;2022-08-01T15:29:17;1.90;;;1.50;;
72273;SDS011;60208;48.692;8.948;2022-08-01T15:31:42;2.33;;;1.40;;